Analomink, Pennsylvania
Current Conditions -  °F | °C
As of 3:53 AM on Wednesday 22 Oct 2014 (Local Time) from KMPO Reporting Station
Overcast Overcast  
Wind Chill: 45°   Ceiling: 400
Heat Index: 49°   Visibility: 9mi
Dew Point: 47°   Wind: 8mph
Humidity: 93%   Direction: 20°NNE
Pressure: 29.91"   Gusts: NA
Location:  41.05°N, 75.22°W
Report Text: KMPO 220753Z AUTO 02007KT 9SM OVC004 09/08 A2991 RMK AO2 SLP132 T00940083 TSNO PNO $
Loading
Personal Weather Stations






























Interactive Weather Map
Tropical Storm Tracking
New forecast layout! Learn more

10-Day Weather Forecast

Advertisements
Track Severe Weather on mobile